Time;durP1;ratioP1;P1;durP2;ratioP2;P2;SDS_P1;SDS_P2;PMS_P1;PMS_P2;Temp;Humidity;BMP_temperature;BMP_pressure;BME280_temperature;BME280_humidity;BME280_pressure;Samples;Min_cycle;Max_cycle;Signal;HPM_P1;HPM_P2
2022/07/24 00:00:15;;;;;;;4.72;4.43;;;;;;;;;;5127692;27;20268;-64
2022/07/24 00:02:43;;;;;;;5.03;4.63;;;;;;;;;;5129056;27;20222;-64
2022/07/24 00:05:12;;;;;;;5.03;4.63;;;;;;;;;;5126848;27;20226;-63
2022/07/24 00:07:39;;;;;;;4.47;4.18;;;;;;;;;;5122859;27;20230;-63
2022/07/24 00:10:07;;;;;;;4.53;4.22;;;;;;;;;;5132877;27;20238;-64
2022/07/24 00:12:34;;;;;;;6.18;4.47;;;;;;;;;;5125862;27;20230;-64
2022/07/24 00:15:01;;;;;;;4.60;4.30;;;;;;;;;;5137181;27;20237;-64
2022/07/24 00:17:29;;;;;;;5.28;4.90;;;;;;;;;;5119994;27;20284;-64
2022/07/24 00:19:57;;;;;;;4.63;4.32;;;;;;;;;;5127128;27;20226;-64
2022/07/24 00:22:25;;;;;;;4.70;4.38;;;;;;;;;;5124494;27;20760;-64
2022/07/24 00:24:53;;;;;;;4.53;4.22;;;;;;;;;;5135070;27;20218;-64
2022/07/24 00:27:20;;;;;;;4.78;4.47;;;;;;;;;;5128585;27;20509;-64
2022/07/24 00:29:47;;;;;;;4.78;4.43;;;;;;;;;;5131659;27;20679;-64
2022/07/24 00:32:14;;;;;;;4.47;4.18;;;;;;;;;;5127774;27;20263;-64
2022/07/24 00:34:42;;;;;;;4.55;4.25;;;;;;;;;;5122899;27;20219;-65
2022/07/24 00:37:10;;;;;;;4.50;4.20;;;;;;;;;;5130457;27;20825;-64
2022/07/24 00:39:38;;;;;;;4.60;4.30;;;;;;;;;;5116611;27;21931;-64
2022/07/24 00:42:05;;;;;;;4.50;4.20;;;;;;;;;;5126667;27;20288;-64
2022/07/24 00:44:33;;;;;;;4.80;4.50;;;;;;;;;;5119513;27;20634;-64
2022/07/24 00:47:00;;;;;;;4.50;4.20;;;;;;;;;;5136261;27;20304;-64
2022/07/24 00:49:28;;;;;;;4.40;4.10;;;;;;;;;;5136198;27;20282;-64
2022/07/24 00:51:55;;;;;;;4.47;4.18;;;;;;;;;;5125210;27;20226;-64
2022/07/24 00:54:23;;;;;;;4.80;4.50;;;;;;;;;;5120970;27;20226;-64
2022/07/24 00:56:53;;;;;;;4.40;4.10;;;;;;;;;;5136679;27;20211;-65
2022/07/24 00:59:21;;;;;;;4.40;4.10;;;;;;;;;;5126713;27;20226;-64
2022/07/24 01:01:48;;;;;;;4.35;4.05;;;;;;;;;;5124988;27;20280;-64
2022/07/24 01:04:16;;;;;;;4.22;4.03;;;;;;;;;;5128353;27;20237;-64
2022/07/24 01:06:43;;;;;;;3.88;3.67;;;;;;;;;;5120957;27;20223;-64
2022/07/24 01:09:11;;;;;;;4.55;4.25;;;;;;;;;;5135294;27;20614;-64
2022/07/24 01:11:39;;;;;;;4.53;4.22;;;;;;;;;;5122316;27;20646;-64
2022/07/24 01:14:08;;;;;;;4.38;4.07;;;;;;;;;;5125401;27;20223;-64
2022/07/24 01:16:35;;;;;;;4.38;4.07;;;;;;;;;;5125026;27;20219;-64
2022/07/24 01:19:03;;;;;;;4.13;3.83;;;;;;;;;;5118941;27;20292;-64
2022/07/24 01:21:31;;;;;;;4.50;4.20;;;;;;;;;;5124737;27;20222;-64
2022/07/24 01:23:59;;;;;;;4.47;4.18;;;;;;;;;;5121429;27;20218;-64
2022/07/24 01:26:26;;;;;;;4.45;4.05;;;;;;;;;;5124624;27;20622;-64
2022/07/24 01:28:54;;;;;;;4.43;4.13;;;;;;;;;;5121834;28;20239;-64
2022/07/24 01:31:21;;;;;;;4.68;4.38;;;;;;;;;;5126412;28;20588;-64
2022/07/24 01:33:49;;;;;;;4.57;4.28;;;;;;;;;;5119741;28;20657;-64
2022/07/24 01:36:16;;;;;;;4.55;4.15;;;;;;;;;;5127613;28;20231;-64
2022/07/24 01:38:45;;;;;;;4.15;3.85;;;;;;;;;;5118597;28;20712;-64
2022/07/24 01:41:12;;;;;;;4.13;3.90;;;;;;;;;;5134978;28;20226;-64
2022/07/24 01:43:40;;;;;;;4.35;4.05;;;;;;;;;;5131181;27;20263;-64
2022/07/24 01:46:07;;;;;;;4.60;4.30;;;;;;;;;;5120021;28;20210;-65
2022/07/24 01:48:34;;;;;;;4.55;4.25;;;;;;;;;;5134904;27;20559;-65
2022/07/24 01:51:02;;;;;;;4.75;4.45;;;;;;;;;;5123508;28;20527;-64
2022/07/24 01:53:29;;;;;;;4.20;3.95;;;;;;;;;;5118655;28;20549;-64
2022/07/24 01:55:58;;;;;;;4.18;3.88;;;;;;;;;;5128805;28;20693;-64
2022/07/24 01:58:25;;;;;;;4.57;4.28;;;;;;;;;;5121634;27;20218;-65
2022/07/24 02:00:52;;;;;;;4.28;4.05;;;;;;;;;;5123599;28;20214;-64
2022/07/24 02:03:20;;;;;;;4.43;4.13;;;;;;;;;;5119930;28;20226;-64
2022/07/24 02:05:48;;;;;;;4.22;3.92;;;;;;;;;;5125839;27;20210;-64
2022/07/24 02:08:15;;;;;;;4.18;3.88;;;;;;;;;;5126652;27;20533;-65
2022/07/24 02:10:43;;;;;;;4.38;4.07;;;;;;;;;;5122068;27;20514;-63
2022/07/24 02:13:11;;;;;;;4.43;4.13;;;;;;;;;;5124934;27;20195;-64
2022/07/24 02:15:39;;;;;;;4.30;4.00;;;;;;;;;;5129407;27;20199;-65
2022/07/24 02:18:06;;;;;;;4.30;4.00;;;;;;;;;;5128628;27;20199;-64
2022/07/24 02:20:33;;;;;;;4.30;4.00;;;;;;;;;;5125191;27;20251;-65
2022/07/24 02:23:01;;;;;;;4.30;4.00;;;;;;;;;;5127858;27;20254;-64
2022/07/24 02:25:28;;;;;;;4.88;4.57;;;;;;;;;;5129392;27;20504;-64
2022/07/24 02:27:56;;;;;;;4.40;4.10;;;;;;;;;;5125716;27;20525;-64
2022/07/24 02:30:25;;;;;;;4.22;4.00;;;;;;;;;;5128815;27;20610;-64
2022/07/24 02:32:52;;;;;;;4.13;3.83;;;;;;;;;;5136159;27;20496;-64
2022/07/24 02:35:20;;;;;;;4.20;3.90;;;;;;;;;;5128380;27;20199;-64
2022/07/24 02:37:47;;;;;;;4.50;4.20;;;;;;;;;;5124759;27;20207;-64
2022/07/24 02:40:15;;;;;;;4.10;3.80;;;;;;;;;;5130385;27;20198;-64
2022/07/24 02:42:43;;;;;;;4.15;3.95;;;;;;;;;;5139592;27;20602;-63
2022/07/24 02:45:10;;;;;;;4.55;4.25;;;;;;;;;;5140260;27;20574;-64
2022/07/24 02:47:48;;;;;;;4.30;4.00;;;;;;;;;;5138798;27;20202;-63
2022/07/24 02:50:15;;;;;;;4.55;4.25;;;;;;;;;;5124788;27;20516;-64
2022/07/24 02:52:43;;;;;;;4.28;4.03;;;;;;;;;;5126293;27;20257;-63
2022/07/24 02:55:10;;;;;;;4.00;3.80;;;;;;;;;;5125145;27;20207;-64
2022/07/24 02:57:38;;;;;;;4.53;4.22;;;;;;;;;;5129211;27;20558;-64
2022/07/24 03:00:06;;;;;;;4.50;4.20;;;;;;;;;;5127467;27;20194;-63
2022/07/24 03:02:33;;;;;;;4.22;3.92;;;;;;;;;;5126079;27;20195;-63
2022/07/24 03:05:02;;;;;;;4.40;4.10;;;;;;;;;;5124255;27;20641;-63
2022/07/24 03:07:30;;;;;;;4.30;4.00;;;;;;;;;;5128446;27;20235;-63
2022/07/24 03:09:57;;;;;;;4.03;3.78;;;;;;;;;;5126909;27;20218;-63
2022/07/24 03:12:24;;;;;;;4.22;4.00;;;;;;;;;;5128707;27;20203;-64
2022/07/24 03:14:52;;;;;;;4.00;3.80;;;;;;;;;;5127099;27;20553;-63
2022/07/24 03:17:19;;;;;;;4.28;3.97;;;;;;;;;;5132274;27;20198;-64
2022/07/24 03:19:47;;;;;;;4.28;4.05;;;;;;;;;;5133599;27;20199;-64
2022/07/24 03:22:15;;;;;;;4.25;3.95;;;;;;;;;;5123020;27;20221;-63
2022/07/24 03:24:42;;;;;;;4.38;4.07;;;;;;;;;;5124997;27;20253;-63
2022/07/24 03:27:10;;;;;;;4.40;4.10;;;;;;;;;;5124199;27;20266;-63
2022/07/24 03:29:37;;;;;;;4.60;4.20;;;;;;;;;;5129880;27;20289;-63
2022/07/24 03:32:04;;;;;;;4.20;3.90;;;;;;;;;;5129224;27;20538;-63
2022/07/24 03:34:32;;;;;;;4.30;4.00;;;;;;;;;;5122712;27;20610;-63
2022/07/24 03:36:59;;;;;;;4.40;4.10;;;;;;;;;;5125797;27;20210;-63
2022/07/24 03:39:28;;;;;;;4.30;4.00;;;;;;;;;;5129229;27;20213;-63
2022/07/24 03:41:55;;;;;;;3.90;3.70;;;;;;;;;;5124035;27;20217;-63
2022/07/24 03:44:23;;;;;;;4.50;4.10;;;;;;;;;;5119032;27;20206;-64
2022/07/24 03:46:50;;;;;;;4.20;3.90;;;;;;;;;;5127562;27;20593;-63
2022/07/24 03:49:17;;;;;;;4.00;3.70;;;;;;;;;;5129502;27;20260;-64
2022/07/24 03:51:45;;;;;;;3.97;3.78;;;;;;;;;;5128325;27;20317;-63
2022/07/24 03:54:12;;;;;;;4.25;3.95;;;;;;;;;;5126192;27;20259;-63
2022/07/24 03:56:41;;;;;;;4.18;3.90;;;;;;;;;;5124782;27;20259;-63
2022/07/24 03:59:08;;;;;;;4.00;3.78;;;;;;;;;;5129064;27;20204;-63
2022/07/24 04:01:36;;;;;;;4.63;4.32;;;;;;;;;;5126292;27;20244;-62
2022/07/24 04:04:04;;;;;;;4.28;3.97;;;;;;;;;;5126551;27;20203;-63
2022/07/24 04:06:32;;;;;;;4.32;4.03;;;;;;;;;;5126470;27;20501;-63
2022/07/24 04:09:00;;;;;;;4.30;4.00;;;;;;;;;;5123169;27;20304;-63
2022/07/24 04:11:27;;;;;;;4.57;4.20;;;;;;;;;;5127301;27;20233;-63
2022/07/24 04:13:56;;;;;;;4.13;3.92;;;;;;;;;;5123580;27;20203;-64
2022/07/24 04:16:24;;;;;;;4.45;4.15;;;;;;;;;;5126206;27;20559;-63
2022/07/24 04:18:51;;;;;;;4.50;4.20;;;;;;;;;;5126580;27;20206;-63
2022/07/24 04:21:19;;;;;;;3.90;3.60;;;;;;;;;;5127883;27;20202;-63
2022/07/24 04:23:46;;;;;;;3.67;3.47;;;;;;;;;;5125681;27;20199;-63
2022/07/24 04:26:13;;;;;;;4.00;3.70;;;;;;;;;;5124096;27;20207;-63
2022/07/24 04:28:41;;;;;;;4.30;4.00;;;;;;;;;;5128558;27;20255;-64
2022/07/24 04:31:11;;;;;;;4.20;3.90;;;;;;;;;;5126089;27;20219;-63
2022/07/24 04:33:38;;;;;;;4.30;4.00;;;;;;;;;;5126538;27;20271;-63
2022/07/24 04:36:06;;;;;;;4.30;4.00;;;;;;;;;;5129342;27;20210;-63
2022/07/24 04:38:33;;;;;;;4.03;3.80;;;;;;;;;;5121128;27;20199;-63
2022/07/24 04:41:01;;;;;;;4.18;3.88;;;;;;;;;;5126716;27;20194;-63
2022/07/24 04:43:28;;;;;;;4.10;3.80;;;;;;;;;;5132065;27;20198;-63
2022/07/24 04:45:56;;;;;;;4.10;3.80;;;;;;;;;;5127467;27;20203;-63
2022/07/24 04:48:26;;;;;;;3.90;3.60;;;;;;;;;;5132279;27;20558;-64
2022/07/24 04:50:53;;;;;;;4.03;3.72;;;;;;;;;;5124666;27;20641;-63
2022/07/24 04:53:20;;;;;;;3.78;3.58;;;;;;;;;;5124691;27;20329;-64
2022/07/24 04:55:47;;;;;;;3.85;3.65;;;;;;;;;;5126293;27;20263;-64
2022/07/24 04:58:15;;;;;;;4.30;4.00;;;;;;;;;;5126626;27;20225;-63
2022/07/24 05:00:42;;;;;;;4.07;3.80;;;;;;;;;;5125465;27;21260;-63
2022/07/24 05:03:09;;;;;;;4.15;3.85;;;;;;;;;;5125229;27;20230;-63
2022/07/24 05:05:38;;;;;;;4.28;3.97;;;;;;;;;;5124024;27;20282;-64
2022/07/24 05:08:05;;;;;;;4.40;4.10;;;;;;;;;;5121808;27;20268;-63
2022/07/24 05:10:33;;;;;;;3.78;3.55;;;;;;;;;;5123763;27;20261;-63
2022/07/24 05:13:00;;;;;;;4.07;3.88;;;;;;;;;;5126100;27;20226;-63
2022/07/24 05:15:27;;;;;;;4.30;4.00;;;;;;;;;;5121055;27;20230;-63
2022/07/24 05:17:54;;;;;;;4.05;3.85;;;;;;;;;;5128974;27;20219;-63
2022/07/24 05:20:22;;;;;;;4.18;3.88;;;;;;;;;;5125234;27;20785;-63
2022/07/24 05:22:51;;;;;;;4.22;3.92;;;;;;;;;;5126110;27;20222;-62
2022/07/24 05:25:18;;;;;;;4.03;3.83;;;;;;;;;;5125307;27;20202;-62
2022/07/24 05:27:46;;;;;;;4.22;3.92;;;;;;;;;;5123277;28;20226;-63
2022/07/24 05:30:13;;;;;;;4.30;4.00;;;;;;;;;;5131185;27;20218;-63
2022/07/24 05:32:41;;;;;;;3.83;3.63;;;;;;;;;;5132702;28;20505;-63
2022/07/24 05:35:08;;;;;;;4.90;4.55;;;;;;;;;;5132399;28;20225;-64
2022/07/24 05:37:35;;;;;;;4.10;3.80;;;;;;;;;;5133112;28;20218;-63
2022/07/24 05:40:05;;;;;;;4.63;4.32;;;;;;;;;;5132123;27;20222;-63
2022/07/24 05:42:32;;;;;;;4.38;4.07;;;;;;;;;;5135348;27;20209;-64
2022/07/24 05:44:59;;;;;;;3.80;3.60;;;;;;;;;;5135447;27;20218;-63
2022/07/24 05:47:27;;;;;;;4.25;4.03;;;;;;;;;;5136783;27;20194;-63
2022/07/24 05:49:54;;;;;;;4.57;4.28;;;;;;;;;;5135464;27;20226;-64
2022/07/24 05:52:21;;;;;;;4.20;4.00;;;;;;;;;;5132262;27;20227;-63
2022/07/24 05:54:49;;;;;;;4.00;3.80;;;;;;;;;;5134258;27;20247;-63
2022/07/24 05:57:17;;;;;;;4.30;4.00;;;;;;;;;;5130826;27;20278;-63
2022/07/24 05:59:45;;;;;;;4.38;4.07;;;;;;;;;;5122781;27;20241;-64
2022/07/24 06:02:12;;;;;;;4.45;4.15;;;;;;;;;;5132579;27;20557;-63
2022/07/24 06:04:41;;;;;;;4.70;4.40;;;;;;;;;;5134475;27;20841;-63
2022/07/24 06:07:10;;;;;;;4.60;4.30;;;;;;;;;;5121080;27;20222;-64
2022/07/24 06:09:37;;;;;;;4.30;4.10;;;;;;;;;;5130349;27;20223;-63
2022/07/24 06:12:04;;;;;;;4.50;4.10;;;;;;;;;;5127709;27;20226;-63
2022/07/24 06:14:34;;;;;;;4.45;4.15;;;;;;;;;;5135643;27;20230;-64
2022/07/24 06:17:01;;;;;;;4.45;4.15;;;;;;;;;;5134285;27;20278;-63
2022/07/24 06:19:29;;;;;;;4.72;4.43;;;;;;;;;;5133458;27;20757;-63
2022/07/24 06:21:56;;;;;;;4.90;4.50;;;;;;;;;;5137587;27;20225;-63
2022/07/24 06:24:23;;;;;;;5.03;4.72;;;;;;;;;;5136208;27;20218;-64
2022/07/24 06:26:50;;;;;;;4.80;4.50;;;;;;;;;;5133952;27;20286;-63
2022/07/24 06:29:18;;;;;;;4.45;4.15;;;;;;;;;;5135896;27;20226;-63
2022/07/24 06:31:46;;;;;;;4.70;4.40;;;;;;;;;;5134185;27;20226;-64
2022/07/24 06:34:14;;;;;;;4.80;4.50;;;;;;;;;;5135753;27;20226;-63
2022/07/24 06:36:41;;;;;;;4.65;4.35;;;;;;;;;;5136003;27;20659;-63
2022/07/24 06:39:08;;;;;;;4.60;4.30;;;;;;;;;;5136431;27;20275;-63
2022/07/24 06:41:35;;;;;;;4.80;4.50;;;;;;;;;;5133078;27;20214;-63
2022/07/24 06:44:03;;;;;;;4.90;4.60;;;;;;;;;;5135444;27;20586;-64
2022/07/24 06:46:30;;;;;;;4.88;4.50;;;;;;;;;;5133636;27;20214;-63
2022/07/24 06:48:59;;;;;;;4.78;4.47;;;;;;;;;;5134855;27;20223;-64
2022/07/24 06:51:26;;;;;;;5.47;5.07;;;;;;;;;;5132885;27;20290;-64
2022/07/24 06:53:53;;;;;;;4.78;4.47;;;;;;;;;;5130454;27;20218;-64
2022/07/24 06:56:21;;;;;;;4.75;4.45;;;;;;;;;;5134574;27;20218;-63
2022/07/24 06:58:48;;;;;;;4.88;4.57;;;;;;;;;;5134100;27;20228;-63
2022/07/24 07:01:15;;;;;;;4.70;4.40;;;;;;;;;;5134315;27;20737;-64
2022/07/24 07:03:43;;;;;;;4.82;4.53;;;;;;;;;;5134761;27;20270;-64
2022/07/24 07:06:12;;;;;;;4.68;4.38;;;;;;;;;;5134883;27;20229;-63
2022/07/24 07:08:39;;;;;;;5.13;4.78;;;;;;;;;;5136105;27;20275;-63
2022/07/24 07:11:07;;;;;;;5.15;4.75;;;;;;;;;;5118856;27;20234;-63
2022/07/24 07:13:35;;;;;;;5.28;4.88;;;;;;;;;;5130259;27;20297;-64
2022/07/24 07:16:02;;;;;;;5.10;4.80;;;;;;;;;;5135169;27;20253;-64
2022/07/24 07:18:29;;;;;;;4.70;4.40;;;;;;;;;;5134281;27;20486;-64
2022/07/24 07:20:56;;;;;;;5.30;4.90;;;;;;;;;;5126638;27;20227;-64
2022/07/24 07:23:26;;;;;;;5.75;5.30;;;;;;;;;;5122526;27;20218;-64
2022/07/24 07:25:54;;;;;;;5.63;5.15;;;;;;;;;;5135587;27;20214;-63
2022/07/24 07:28:22;;;;;;;5.13;4.72;;;;;;;;;;5135808;27;20233;-64
2022/07/24 07:30:49;;;;;;;4.88;4.53;;;;;;;;;;5155553;27;20597;-64
2022/07/24 07:33:16;;;;;;;5.28;4.88;;;;;;;;;;5155124;27;20283;-64
2022/07/24 07:35:43;;;;;;;5.07;4.78;;;;;;;;;;5138905;27;20271;-64
2022/07/24 07:38:11;;;;;;;5.25;4.85;;;;;;;;;;5138985;27;20267;-64
2022/07/24 07:40:39;;;;;;;5.43;5.03;;;;;;;;;;5138892;27;20201;-64
2022/07/24 07:43:07;;;;;;;5.13;4.80;;;;;;;;;;5137854;27;20543;-63
2022/07/24 07:45:34;;;;;;;5.22;4.93;;;;;;;;;;5143192;27;20254;-63
2022/07/24 07:48:02;;;;;;;5.18;4.78;;;;;;;;;;5159132;27;20201;-63
2022/07/24 07:50:29;;;;;;;5.45;5.05;;;;;;;;;;5159192;27;20233;-64
2022/07/24 07:52:57;;;;;;;5.45;5.05;;;;;;;;;;5158852;27;20289;-63
2022/07/24 07:55:24;;;;;;;5.03;4.63;;;;;;;;;;5158894;27;20206;-63
2022/07/24 07:57:53;;;;;;;5.00;4.70;;;;;;;;;;5155467;27;20201;-64
2022/07/24 08:00:20;;;;;;;5.25;4.95;;;;;;;;;;5135000;27;20194;-63
2022/07/24 08:02:48;;;;;;;5.50;5.10;;;;;;;;;;5128655;27;20194;-63
2022/07/24 08:05:15;;;;;;;5.57;5.18;;;;;;;;;;5128052;27;20195;-64
2022/07/24 08:07:42;;;;;;;5.65;5.25;;;;;;;;;;5130718;27;20258;-63
2022/07/24 08:10:10;;;;;;;5.53;5.13;;;;;;;;;;5125590;27;20465;-64
2022/07/24 08:12:38;;;;;;;5.50;5.10;;;;;;;;;;5130755;27;20252;-63
2022/07/24 08:15:07;;;;;;;5.22;4.82;;;;;;;;;;5133607;27;20247;-63
2022/07/24 08:17:35;;;;;;;5.30;4.90;;;;;;;;;;5133598;27;20206;-63
2022/07/24 08:20:02;;;;;;;5.38;4.93;;;;;;;;;;5132731;27;20255;-63
2022/07/24 08:22:29;;;;;;;5.20;4.90;;;;;;;;;;5132697;27;20197;-63
2022/07/24 08:24:57;;;;;;;5.35;4.95;;;;;;;;;;5125781;27;20195;-63
2022/07/24 08:27:24;;;;;;;5.35;4.97;;;;;;;;;;5125389;27;20206;-63
2022/07/24 08:29:51;;;;;;;5.65;5.25;;;;;;;;;;5124511;27;20512;-63
2022/07/24 08:32:20;;;;;;;5.63;5.22;;;;;;;;;;5125694;27;20773;-63
2022/07/24 08:34:47;;;;;;;5.70;5.20;;;;;;;;;;5126022;27;20206;-64
2022/07/24 08:37:15;;;;;;;5.35;4.95;;;;;;;;;;5121951;27;20228;-64
2022/07/24 08:39:42;;;;;;;5.60;5.20;;;;;;;;;;5124045;27;20199;-63
2022/07/24 08:42:10;;;;;;;5.55;5.05;;;;;;;;;;5123314;27;20191;-64
2022/07/24 08:44:37;;;;;;;5.45;5.05;;;;;;;;;;5126348;27;20195;-64
2022/07/24 08:47:06;;;;;;;5.85;5.45;;;;;;;;;;5124011;27;20221;-63
2022/07/24 08:49:35;;;;;;;5.82;5.43;;;;;;;;;;5127211;27;20209;-63
2022/07/24 08:52:04;;;;;;;5.47;5.07;;;;;;;;;;5128471;27;20572;-63
2022/07/24 08:54:32;;;;;;;5.60;5.20;;;;;;;;;;5132043;27;20751;-63
2022/07/24 08:56:59;;;;;;;5.78;5.38;;;;;;;;;;5132044;27;20202;-64
2022/07/24 08:59:27;;;;;;;5.93;5.40;;;;;;;;;;5131031;27;20461;-64
2022/07/24 09:01:54;;;;;;;5.47;5.07;;;;;;;;;;5131991;27;20638;-62
2022/07/24 09:04:36;;;;;;;5.70;5.20;;;;;;;;;;5132437;27;20199;-63
2022/07/24 09:07:05;;;;;;;9.05;5.25;;;;;;;;;;5131108;27;20213;-63
2022/07/24 09:09:32;;;;;;;21.80;7.40;;;;;;;;;;5133410;27;20190;-63
2022/07/24 09:12:10;;;;;;;10.23;5.80;;;;;;;;;;5133036;27;20282;-63
2022/07/24 09:14:38;;;;;;;7.95;5.55;;;;;;;;;;5133017;27;20193;-64
2022/07/24 09:17:06;;;;;;;6.97;6.00;;;;;;;;;;5130817;27;20237;-63
2022/07/24 09:19:46;;;;;;;6.85;5.53;;;;;;;;;;5133886;27;20201;-64
2022/07/24 09:22:18;;;;;;;11.00;6.05;;;;;;;;;;5131411;27;20213;-63
2022/07/24 09:24:45;;;;;;;7.97;5.53;;;;;;;;;;5132896;27;20194;-63
2022/07/24 09:27:15;;;;;;;7.03;5.55;;;;;;;;;;5133103;27;20757;-63
2022/07/24 09:29:43;;;;;;;6.32;5.60;;;;;;;;;;5133057;27;20519;-63
2022/07/24 09:32:10;;;;;;;7.18;5.75;;;;;;;;;;5132116;27;20485;-63
2022/07/24 09:34:39;;;;;;;6.82;5.22;;;;;;;;;;5132316;27;20194;-63
2022/07/24 09:37:08;;;;;;;6.70;6.10;;;;;;;;;;5134382;28;20194;-63
2022/07/24 09:39:37;;;;;;;6.35;5.20;;;;;;;;;;5132241;28;20255;-63
2022/07/24 09:42:05;;;;;;;6.47;5.85;;;;;;;;;;5132800;28;20194;-63
2022/07/24 09:44:33;;;;;;;5.95;5.35;;;;;;;;;;5132960;28;20198;-63
2022/07/24 09:47:01;;;;;;;5.82;5.32;;;;;;;;;;5117512;28;20235;-63
2022/07/24 09:49:29;;;;;;;6.97;5.57;;;;;;;;;;5130093;27;20598;-63
2022/07/24 09:52:12;;;;;;;7.65;5.30;;;;;;;;;;5123889;28;20297;-63
2022/07/24 09:54:41;;;;;;;5.60;5.10;;;;;;;;;;5124927;28;20191;-63
2022/07/24 09:57:18;;;;;;;5.95;5.32;;;;;;;;;;5121424;28;20194;-63
2022/07/24 09:59:48;;;;;;;6.05;5.45;;;;;;;;;;5133720;28;20202;-64
2022/07/24 10:02:16;;;;;;;5.75;5.18;;;;;;;;;;5132996;27;20243;-63
2022/07/24 10:04:44;;;;;;;5.50;5.00;;;;;;;;;;5131166;27;20267;-63
2022/07/24 10:07:14;;;;;;;5.85;5.22;;;;;;;;;;5132341;27;20206;-63
2022/07/24 10:09:43;;;;;;;5.80;5.30;;;;;;;;;;5133324;28;20194;-63
2022/07/24 10:12:13;;;;;;;5.90;5.40;;;;;;;;;;5125322;28;20214;-63
2022/07/24 10:14:41;;;;;;;5.50;5.00;;;;;;;;;;5116314;28;20219;-63
2022/07/24 10:17:09;;;;;;;5.70;5.20;;;;;;;;;;5135062;27;20229;-63
2022/07/24 10:19:40;;;;;;;5.55;5.15;;;;;;;;;;5133159;28;20194;-63
2022/07/24 10:22:10;;;;;;;6.00;5.40;;;;;;;;;;5130449;27;20555;-63
2022/07/24 10:24:54;;;;;;;5.60;5.10;;;;;;;;;;5135425;28;20359;-63
2022/07/24 10:27:24;;;;;;;5.18;4.68;;;;;;;;;;5132724;27;20206;-63
2022/07/24 10:29:53;;;;;;;5.35;4.85;;;;;;;;;;5136928;27;20230;-63
2022/07/24 10:32:20;;;;;;;5.45;4.95;;;;;;;;;;5135939;27;20218;-63
2022/07/24 10:34:49;;;;;;;5.50;5.10;;;;;;;;;;5136471;27;20254;-62
2022/07/24 10:37:21;;;;;;;5.40;5.03;;;;;;;;;;5136237;27;20194;-64
2022/07/24 10:39:55;;;;;;;5.20;4.80;;;;;;;;;;5136458;27;20194;-63
2022/07/24 10:42:22;;;;;;;5.20;4.90;;;;;;;;;;5135261;27;20195;-62
2022/07/24 10:45:04;;;;;;;4.90;4.50;;;;;;;;;;5135230;27;20186;-63
2022/07/24 10:47:32;;;;;;;4.85;4.47;;;;;;;;;;5124606;27;20267;-63
2022/07/24 10:50:00;;;;;;;4.85;4.45;;;;;;;;;;5121740;27;20193;-63
2022/07/24 10:52:29;;;;;;;4.93;4.63;;;;;;;;;;5123600;27;20222;-63
2022/07/24 10:55:15;;;;;;;4.82;4.47;;;;;;;;;;5137240;27;20202;-62
2022/07/24 10:57:50;;;;;;;5.30;4.82;;;;;;;;;;5136167;27;20244;-62
2022/07/24 11:00:24;;;;;;;5.25;4.85;;;;;;;;;;5134253;27;20202;-62
2022/07/24 11:02:58;;;;;;;5.30;4.80;;;;;;;;;;5135532;27;20198;-63
2022/07/24 11:05:27;;;;;;;5.00;4.60;;;;;;;;;;5136347;27;20667;-63
2022/07/24 11:08:12;;;;;;;4.63;4.32;;;;;;;;;;5127710;27;20206;-63
2022/07/24 11:10:46;;;;;;;4.85;4.45;;;;;;;;;;5128863;27;20203;-63
2022/07/24 11:13:28;;;;;;;5.28;4.88;;;;;;;;;;5116974;27;20218;-63
2022/07/24 11:16:10;;;;;;;4.65;4.35;;;;;;;;;;5133957;27;20202;-62
2022/07/24 11:18:39;;;;;;;4.95;4.55;;;;;;;;;;5110538;27;20203;-62
2022/07/24 11:21:08;;;;;;;5.05;4.65;;;;;;;;;;5127022;27;20635;-62
2022/07/24 11:23:35;;;;;;;4.43;4.13;;;;;;;;;;5134668;27;20267;-63
2022/07/24 11:26:20;;;;;;;5.00;4.68;;;;;;;;;;5134173;27;20206;-62
2022/07/24 11:29:02;;;;;;;4.80;4.50;;;;;;;;;;5119425;27;20227;-63
2022/07/24 11:31:30;;;;;;;4.90;4.60;;;;;;;;;;5116316;28;20275;-62
2022/07/24 11:33:59;;;;;;;4.60;4.30;;;;;;;;;;5116247;28;20219;-63
2022/07/24 11:36:26;;;;;;;4.70;4.40;;;;;;;;;;5116096;28;20298;-63
2022/07/24 11:38:54;;;;;;;4.75;4.45;;;;;;;;;;5116739;28;20209;-63
2022/07/24 11:41:21;;;;;;;4.57;4.28;;;;;;;;;;5116175;28;20190;-63
2022/07/24 11:43:52;;;;;;;4.47;4.18;;;;;;;;;;5115802;28;20583;-63
2022/07/24 11:46:33;;;;;;;4.65;4.35;;;;;;;;;;5115698;28;20264;-63
2022/07/24 11:49:04;;;;;;;4.95;4.65;;;;;;;;;;5116092;28;20202;-63
2022/07/24 11:51:32;;;;;;;4.03;3.72;;;;;;;;;;5116082;28;20602;-64
2022/07/24 11:54:01;;;;;;;4.90;4.50;;;;;;;;;;5115664;28;20229;-64
2022/07/24 11:56:31;;;;;;;4.43;4.13;;;;;;;;;;5115473;28;20289;-63
2022/07/24 11:58:58;;;;;;;4.47;4.18;;;;;;;;;;5116231;28;20195;-63
2022/07/24 12:01:26;;;;;;;4.53;4.22;;;;;;;;;;5115560;28;20210;-63
2022/07/24 12:03:54;;;;;;;4.60;4.30;;;;;;;;;;5115407;28;20203;-63
2022/07/24 12:06:23;;;;;;;4.32;4.03;;;;;;;;;;5115604;28;20199;-63
2022/07/24 12:08:50;;;;;;;4.70;4.40;;;;;;;;;;5116017;28;20206;-63
2022/07/24 12:11:22;;;;;;;4.60;4.30;;;;;;;;;;5114937;28;20195;-64
2022/07/24 12:13:50;;;;;;;4.50;4.20;;;;;;;;;;5114895;28;20786;-63
2022/07/24 12:16:24;;;;;;;4.57;4.28;;;;;;;;;;5115258;28;20261;-63
2022/07/24 12:18:51;;;;;;;4.13;3.90;;;;;;;;;;5115312;28;20203;-63
2022/07/24 12:21:19;;;;;;;4.75;4.35;;;;;;;;;;5116052;28;20195;-63
2022/07/24 12:23:47;;;;;;;4.43;4.13;;;;;;;;;;5115272;28;20256;-63
2022/07/24 12:26:15;;;;;;;4.70;4.30;;;;;;;;;;5115330;28;20249;-63
2022/07/24 12:28:42;;;;;;;4.40;4.10;;;;;;;;;;5122041;27;20230;-63
2022/07/24 12:31:09;;;;;;;4.68;4.25;;;;;;;;;;5119398;27;20195;-63
2022/07/24 12:33:37;;;;;;;4.57;4.28;;;;;;;;;;5132287;27;20218;-63
2022/07/24 12:36:10;;;;;;;4.45;4.15;;;;;;;;;;5119709;27;20195;-63
2022/07/24 12:38:39;;;;;;;4.57;4.28;;;;;;;;;;5133341;27;20193;-64
2022/07/24 12:41:09;;;;;;;4.32;4.03;;;;;;;;;;5118887;27;20199;-63
2022/07/24 12:43:48;;;;;;;4.30;3.90;;;;;;;;;;5128708;27;20193;-64
2022/07/24 12:46:15;;;;;;;4.45;4.10;;;;;;;;;;5110949;27;20198;-63
2022/07/24 12:48:57;;;;;;;4.50;4.20;;;;;;;;;;5128162;27;20191;-64
2022/07/24 12:51:24;;;;;;;4.50;4.20;;;;;;;;;;5128030;27;20804;-64
2022/07/24 12:53:54;;;;;;;4.90;4.50;;;;;;;;;;5131414;27;20218;-63
2022/07/24 12:56:23;;;;;;;4.90;4.60;;;;;;;;;;5121763;27;20275;-63
2022/07/24 12:58:52;;;;;;;4.53;4.22;;;;;;;;;;5116280;28;20195;-63
2022/07/24 13:01:19;;;;;;;4.65;4.35;;;;;;;;;;5123380;27;20244;-63
2022/07/24 13:03:51;;;;;;;4.78;4.45;;;;;;;;;;5130046;27;20205;-63
2022/07/24 13:06:18;;;;;;;4.70;4.30;;;;;;;;;;5118703;27;20652;-63
2022/07/24 13:08:46;;;;;;;4.35;4.05;;;;;;;;;;5124273;27;20201;-63
2022/07/24 13:11:13;;;;;;;4.63;4.32;;;;;;;;;;5120513;27;20259;-63
2022/07/24 13:13:42;;;;;;;4.80;4.50;;;;;;;;;;5123108;27;20275;-63
2022/07/24 13:16:09;;;;;;;4.70;4.30;;;;;;;;;;5120145;27;20195;-63
2022/07/24 13:18:37;;;;;;;4.35;4.05;;;;;;;;;;5120610;27;20203;-63
2022/07/24 13:21:04;;;;;;;4.60;4.20;;;;;;;;;;5131683;27;20221;-63
2022/07/24 13:23:32;;;;;;;5.00;4.60;;;;;;;;;;5117556;27;20213;-63
2022/07/24 13:25:59;;;;;;;4.65;4.35;;;;;;;;;;5121317;27;20251;-63
2022/07/24 13:28:27;;;;;;;4.40;4.10;;;;;;;;;;5114171;28;20222;-63
2022/07/24 13:30:55;;;;;;;3.95;3.75;;;;;;;;;;5126862;28;20198;-63
2022/07/24 13:33:23;;;;;;;4.15;3.85;;;;;;;;;;5115081;28;20230;-64
2022/07/24 13:35:50;;;;;;;4.45;4.05;;;;;;;;;;5123753;28;20199;-64
2022/07/24 13:38:18;;;;;;;4.60;4.30;;;;;;;;;;5119610;28;20542;-64
2022/07/24 13:40:45;;;;;;;4.78;4.47;;;;;;;;;;5121259;28;20252;-63
2022/07/24 13:43:12;;;;;;;4.60;4.30;;;;;;;;;;5121517;28;20195;-63
2022/07/24 13:45:39;;;;;;;4.70;4.40;;;;;;;;;;5130255;28;20258;-63
2022/07/24 13:48:08;;;;;;;4.70;4.40;;;;;;;;;;5116186;28;20248;-63
2022/07/24 13:50:36;;;;;;;4.38;4.07;;;;;;;;;;5133032;28;20198;-63
2022/07/24 13:53:03;;;;;;;4.57;4.28;;;;;;;;;;5126368;28;20202;-63
2022/07/24 13:55:32;;;;;;;4.15;3.85;;;;;;;;;;5123679;28;20263;-64
2022/07/24 13:57:59;;;;;;;4.90;4.60;;;;;;;;;;5122636;28;20521;-63
2022/07/24 14:00:26;;;;;;;4.70;4.30;;;;;;;;;;5119794;28;20205;-63
2022/07/24 14:02:55;;;;;;;4.40;4.10;;;;;;;;;;5129827;27;20674;-63
2022/07/24 14:05:23;;;;;;;4.35;4.05;;;;;;;;;;5126654;27;20603;-63
2022/07/24 14:07:51;;;;;;;4.40;4.10;;;;;;;;;;5132352;27;20804;-63
2022/07/24 14:10:18;;;;;;;4.60;4.30;;;;;;;;;;5130133;27;20204;-63
2022/07/24 14:12:45;;;;;;;4.38;4.07;;;;;;;;;;5124662;27;20203;-63
2022/07/24 14:15:13;;;;;;;4.57;4.18;;;;;;;;;;5130068;27;20215;-63
2022/07/24 14:17:41;;;;;;;4.70;4.30;;;;;;;;;;5129844;27;20194;-63
2022/07/24 14:20:09;;;;;;;4.43;4.13;;;;;;;;;;5128378;27;20198;-63
2022/07/24 14:22:38;;;;;;;4.28;3.97;;;;;;;;;;5119331;28;20203;-64
2022/07/24 14:25:06;;;;;;;4.20;3.95;;;;;;;;;;5118750;28;20199;-64
2022/07/24 14:27:33;;;;;;;4.35;4.05;;;;;;;;;;5125214;27;20255;-63
2022/07/24 14:30:01;;;;;;;4.53;4.22;;;;;;;;;;5127604;27;20230;-63
2022/07/24 14:32:28;;;;;;;4.30;4.00;;;;;;;;;;5117869;28;20201;-63
2022/07/24 14:34:55;;;;;;;4.60;4.20;;;;;;;;;;5124356;27;20214;-63
2022/07/24 14:37:23;;;;;;;4.18;3.88;;;;;;;;;;5134207;27;20259;-63
2022/07/24 14:39:51;;;;;;;4.95;4.55;;;;;;;;;;5134378;27;20255;-63
2022/07/24 14:42:18;;;;;;;4.60;4.20;;;;;;;;;;5123120;27;20205;-63
2022/07/24 14:44:46;;;;;;;4.38;4.07;;;;;;;;;;5119397;27;20252;-63
2022/07/24 14:47:13;;;;;;;4.78;4.47;;;;;;;;;;5122640;27;20207;-63
2022/07/24 14:49:40;;;;;;;4.30;4.00;;;;;;;;;;5133189;27;20247;-63